<?xml version="1.0" encoding="UTF-8" standalone="no" ?>
<gpx xmlns="http://www.topografix.com/GPX/1/1" xmlns:xsi="http://www.w3.org/2001/XMLSchema-instance" xsi:schemaLocation="http://www.topografix.com/GPX/1/1 http://www.topografix.com/GPX/1/1/gpx.xsd" version="1.1" creator="VisuGPX - https://www.visugpx.com">
  <metadata>
    <name>Rando en passant par la Dole</name>
    <desc><![CDATA[Rando en passant par la dole]]></desc>
  </metadata>
  <trk>
    <name><![CDATA[ACTIVE LOG121515]]></name>
    <trkseg>
      <trkpt lat="46.44342" lon="6.13373">
        <ele>1181.243</ele>
        <time>2013-10-19T10:15:15Z</time>
      </trkpt>
      <trkpt lat="46.44347" lon="6.13374">
        <ele>1181.122</ele>
        <time>2013-10-19T10:15:16Z</time>
      </trkpt>
      <trkpt lat="46.44328" lon="6.13377">
        <ele>1179.843</ele>
        <time>2013-10-19T10:15:30Z</time>
      </trkpt>
      <trkpt lat="46.44237" lon="6.13366">
        <ele>1178.657</ele>
        <time>2013-10-19T10:15:45Z</time>
      </trkpt>
      <trkpt lat="46.4423" lon="6.13365">
        <ele>1179.706</ele>
        <time>2013-10-19T10:15:55Z</time>
      </trkpt>
      <trkpt lat="46.4423" lon="6.13362">
        <ele>1179.975</ele>
        <time>2013-10-19T10:16:07Z</time>
      </trkpt>
      <trkpt lat="46.44234" lon="6.13361">
        <ele>1179.621</ele>
        <time>2013-10-19T10:16:17Z</time>
      </trkpt>
      <trkpt lat="46.44189" lon="6.13356">
        <ele>1179.817</ele>
        <time>2013-10-19T10:16:27Z</time>
      </trkpt>
      <trkpt lat="46.44167" lon="6.13349">
        <ele>1181.381</ele>
        <time>2013-10-19T10:16:40Z</time>
      </trkpt>
      <trkpt lat="46.44175" lon="6.13348">
        <ele>1182.427</ele>
        <time>2013-10-19T10:16:51Z</time>
      </trkpt>
      <trkpt lat="46.44203" lon="6.13358">
        <ele>1180.948</ele>
        <time>2013-10-19T10:17:11Z</time>
      </trkpt>
      <trkpt lat="46.44181" lon="6.13349">
        <ele>1181.003</ele>
        <time>2013-10-19T10:17:33Z</time>
      </trkpt>
      <trkpt lat="46.44172" lon="6.13351">
        <ele>1181.004</ele>
        <time>2013-10-19T10:18:08Z</time>
      </trkpt>
      <trkpt lat="46.44183" lon="6.13348">
        <ele>1180.997</ele>
        <time>2013-10-19T10:18:29Z</time>
      </trkpt>
      <trkpt lat="46.44195" lon="6.1334">
        <ele>1181.009</ele>
        <time>2013-10-19T10:18:38Z</time>
      </trkpt>
      <trkpt lat="46.44214" lon="6.13333">
        <ele>1180.358</ele>
        <time>2013-10-19T10:18:53Z</time>
      </trkpt>
      <trkpt lat="46.44213" lon="6.13323">
        <ele>1177.335</ele>
        <time>2013-10-19T10:19:08Z</time>
      </trkpt>
      <trkpt lat="46.44215" lon="6.13326">
        <ele>1175.383</ele>
        <time>2013-10-19T10:19:37Z</time>
      </trkpt>
      <trkpt lat="46.44217" lon="6.13331">
        <ele>1172.872</ele>
        <time>2013-10-19T10:19:55Z</time>
      </trkpt>
      <trkpt lat="46.44235" lon="6.13347">
        <ele>1171.639</ele>
        <time>2013-10-19T10:20:15Z</time>
      </trkpt>
      <trkpt lat="46.44241" lon="6.13356">
        <ele>1170.177</ele>
        <time>2013-10-19T10:20:34Z</time>
      </trkpt>
      <trkpt lat="46.44258" lon="6.13365">
        <ele>1168.866</ele>
        <time>2013-10-19T10:20:50Z</time>
      </trkpt>
      <trkpt lat="46.4427" lon="6.13369">
        <ele>1167.446</ele>
        <time>2013-10-19T10:21:06Z</time>
      </trkpt>
      <trkpt lat="46.44279" lon="6.13367">
        <ele>1167.103</ele>
        <time>2013-10-19T10:21:17Z</time>
      </trkpt>
      <trkpt lat="46.44286" lon="6.13362">
        <ele>1166.6</ele>
        <time>2013-10-19T10:21:29Z</time>
      </trkpt>
      <trkpt lat="46.44301" lon="6.13358">
        <ele>1165.699</ele>
        <time>2013-10-19T10:21:43Z</time>
      </trkpt>
      <trkpt lat="46.44318" lon="6.13351">
        <ele>1164.864</ele>
        <time>2013-10-19T10:21:57Z</time>
      </trkpt>
      <trkpt lat="46.44334" lon="6.13347">
        <ele>1163.621</ele>
        <time>2013-10-19T10:22:11Z</time>
      </trkpt>
      <trkpt lat="46.44349" lon="6.13343">
        <ele>1162.618</ele>
        <time>2013-10-19T10:22:25Z</time>
      </trkpt>
      <trkpt lat="46.44364" lon="6.13342">
        <ele>1161.969</ele>
        <time>2013-10-19T10:22:38Z</time>
      </trkpt>
      <trkpt lat="46.44379" lon="6.13346">
        <ele>1162.259</ele>
        <time>2013-10-19T10:22:52Z</time>
      </trkpt>
      <trkpt lat="46.44397" lon="6.13357">
        <ele>1162.293</ele>
        <time>2013-10-19T10:23:09Z</time>
      </trkpt>
      <trkpt lat="46.4442" lon="6.13377">
        <ele>1160.695</ele>
        <time>2013-10-19T10:23:27Z</time>
      </trkpt>
      <trkpt lat="46.4443" lon="6.13382">
        <ele>1158.776</ele>
        <time>2013-10-19T10:23:39Z</time>
      </trkpt>
      <trkpt lat="46.44436" lon="6.13382">
        <ele>1159.772</ele>
        <time>2013-10-19T10:23:55Z</time>
      </trkpt>
      <trkpt lat="46.44443" lon="6.13388">
        <ele>1160.565</ele>
        <time>2013-10-19T10:24:16Z</time>
      </trkpt>
      <trkpt lat="46.44449" lon="6.13398">
        <ele>1160.309</ele>
        <time>2013-10-19T10:24:26Z</time>
      </trkpt>
      <trkpt lat="46.44463" lon="6.13406">
        <ele>1159.344</ele>
        <time>2013-10-19T10:24:35Z</time>
      </trkpt>
      <trkpt lat="46.44458" lon="6.13406">
        <ele>1158.805</ele>
        <time>2013-10-19T10:24:40Z</time>
      </trkpt>
      <trkpt lat="46.44464" lon="6.13411">
        <ele>1157.457</ele>
        <time>2013-10-19T10:24:49Z</time>
      </trkpt>
      <trkpt lat="46.44478" lon="6.13411">
        <ele>1156.733</ele>
        <time>2013-10-19T10:25:01Z</time>
      </trkpt>
      <trkpt lat="46.44488" lon="6.13409">
        <ele>1156.715</ele>
        <time>2013-10-19T10:25:14Z</time>
      </trkpt>
      <trkpt lat="46.44503" lon="6.13401">
        <ele>1155.566</ele>
        <time>2013-10-19T10:25:36Z</time>
      </trkpt>
      <trkpt lat="46.44513" lon="6.13394">
        <ele>1154.636</ele>
        <time>2013-10-19T10:25:46Z</time>
      </trkpt>
      <trkpt lat="46.44519" lon="6.13391">
        <ele>1154.99</ele>
        <time>2013-10-19T10:25:51Z</time>
      </trkpt>
      <trkpt lat="46.44535" lon="6.13388">
        <ele>1155.815</ele>
        <time>2013-10-19T10:26:05Z</time>
      </trkpt>
      <trkpt lat="46.44549" lon="6.13384">
        <ele>1154.553</ele>
        <time>2013-10-19T10:26:19Z</time>
      </trkpt>
      <trkpt lat="46.44559" lon="6.13376">
        <ele>1154.423</ele>
        <time>2013-10-19T10:26:30Z</time>
      </trkpt>
      <trkpt lat="46.44574" lon="6.13369">
        <ele>1154.695</ele>
        <time>2013-10-19T10:26:45Z</time>
      </trkpt>
      <trkpt lat="46.44577" lon="6.13363">
        <ele>1155.001</ele>
        <time>2013-10-19T10:26:51Z</time>
      </trkpt>
      <trkpt lat="46.44577" lon="6.13354">
        <ele>1154.675</ele>
        <time>2013-10-19T10:26:57Z</time>
      </trkpt>
      <trkpt lat="46.44575" lon="6.13339">
        <ele>1156.32</ele>
        <time>2013-10-19T10:27:10Z</time>
      </trkpt>
      <trkpt lat="46.44574" lon="6.13326">
        <ele>1157.76</ele>
        <time>2013-10-19T10:27:21Z</time>
      </trkpt>
      <trkpt lat="46.44584" lon="6.13305">
        <ele>1159.898</ele>
        <time>2013-10-19T10:27:44Z</time>
      </trkpt>
      <trkpt lat="46.44592" lon="6.13296">
        <ele>1161.379</ele>
        <time>2013-10-19T10:27:55Z</time>
      </trkpt>
      <trkpt lat="46.44598" lon="6.1329">
        <ele>1162.379</ele>
        <time>2013-10-19T10:28:04Z</time>
      </trkpt>
      <trkpt lat="46.44602" lon="6.13279">
        <ele>1163.365</ele>
        <time>2013-10-19T10:28:14Z</time>
      </trkpt>
      <trkpt lat="46.44606" lon="6.13273">
        <ele>1163.978</ele>
        <time>2013-10-19T10:28:20Z</time>
      </trkpt>
      <trkpt lat="46.44609" lon="6.13263">
        <ele>1163.86</ele>
        <time>2013-10-19T10:28:29Z</time>
      </trkpt>
      <trkpt lat="46.44615" lon="6.13248">
        <ele>1164.004</ele>
        <time>2013-10-19T10:28:42Z</time>
      </trkpt>
      <trkpt lat="46.4462" lon="6.13233">
        <ele>1164.785</ele>
        <time>2013-10-19T10:28:56Z</time>
      </trkpt>
      <trkpt lat="46.44622" lon="6.1323">
        <ele>1164.963</ele>
        <time>2013-10-19T10:28:59Z</time>
      </trkpt>
      <trkpt lat="46.44631" lon="6.13222">
        <ele>1165.475</ele>
        <time>2013-10-19T10:29:12Z</time>
      </trkpt>
      <trkpt lat="46.44642" lon="6.13214">
        <ele>1167.183</ele>
        <time>2013-10-19T10:29:25Z</time>
      </trkpt>
      <trkpt lat="46.44646" lon="6.13208">
        <ele>1167.933</ele>
        <time>2013-10-19T10:29:32Z</time>
      </trkpt>
      <trkpt lat="46.44646" lon="6.13193">
        <ele>1170.539</ele>
        <time>2013-10-19T10:29:46Z</time>
      </trkpt>
      <trkpt lat="46.44646" lon="6.13187">
        <ele>1171.666</ele>
        <time>2013-10-19T10:29:52Z</time>
      </trkpt>
      <trkpt lat="46.44647" lon="6.13177">
        <ele>1171.662</ele>
        <time>2013-10-19T10:30:06Z</time>
      </trkpt>
      <trkpt lat="46.44646" lon="6.13167">
        <ele>1174.895</ele>
        <time>2013-10-19T10:30:19Z</time>
      </trkpt>
      <trkpt lat="46.44644" lon="6.13152">
        <ele>1175.98</ele>
        <time>2013-10-19T10:30:34Z</time>
      </trkpt>
      <trkpt lat="46.44643" lon="6.13144">
        <ele>1176.754</ele>
        <time>2013-10-19T10:30:48Z</time>
      </trkpt>
      <trkpt lat="46.44643" lon="6.13138">
        <ele>1177.458</ele>
        <time>2013-10-19T10:31:20Z</time>
      </trkpt>
      <trkpt lat="46.44643" lon="6.13133">
        <ele>1176.113</ele>
        <time>2013-10-19T10:31:25Z</time>
      </trkpt>
      <trkpt lat="46.44641" lon="6.13125">
        <ele>1178.505</ele>
        <time>2013-10-19T10:31:37Z</time>
      </trkpt>
      <trkpt lat="46.44642" lon="6.13112">
        <ele>1178.156</ele>
        <time>2013-10-19T10:31:50Z</time>
      </trkpt>
      <trkpt lat="46.44646" lon="6.13098">
        <ele>1180.588</ele>
        <time>2013-10-19T10:32:05Z</time>
      </trkpt>
      <trkpt lat="46.44651" lon="6.13084">
        <ele>1182.119</ele>
        <time>2013-10-19T10:32:20Z</time>
      </trkpt>
      <trkpt lat="46.44654" lon="6.1308">
        <ele>1183.616</ele>
        <time>2013-10-19T10:32:27Z</time>
      </trkpt>
      <trkpt lat="46.44656" lon="6.1308">
        <ele>1183.83</ele>
        <time>2013-10-19T10:32:28Z</time>
      </trkpt>
      <trkpt lat="46.44657" lon="6.13074">
        <ele>1185.678</ele>
        <time>2013-10-19T10:32:36Z</time>
      </trkpt>
      <trkpt lat="46.44658" lon="6.1306">
        <ele>1187.756</ele>
        <time>2013-10-19T10:32:48Z</time>
      </trkpt>
      <trkpt lat="46.44659" lon="6.13055">
        <ele>1188.062</ele>
        <time>2013-10-19T10:33:04Z</time>
      </trkpt>
      <trkpt lat="46.44658" lon="6.13053">
        <ele>1187.952</ele>
        <time>2013-10-19T10:33:05Z</time>
      </trkpt>
      <trkpt lat="46.44663" lon="6.13045">
        <ele>1190.586</ele>
        <time>2013-10-19T10:33:16Z</time>
      </trkpt>
      <trkpt lat="46.44666" lon="6.13035">
        <ele>1190.799</ele>
        <time>2013-10-19T10:33:29Z</time>
      </trkpt>
      <trkpt lat="46.44669" lon="6.13025">
        <ele>1191.055</ele>
        <time>2013-10-19T10:33:39Z</time>
      </trkpt>
      <trkpt lat="46.44676" lon="6.13007">
        <ele>1192.516</ele>
        <time>2013-10-19T10:33:57Z</time>
      </trkpt>
      <trkpt lat="46.44679" lon="6.1299">
        <ele>1193.629</ele>
        <time>2013-10-19T10:34:10Z</time>
      </trkpt>
      <trkpt lat="46.44674" lon="6.12983">
        <ele>1195.271</ele>
        <time>2013-10-19T10:34:25Z</time>
      </trkpt>
      <trkpt lat="46.44677" lon="6.12976">
        <ele>1193.719</ele>
        <time>2013-10-19T10:34:37Z</time>
      </trkpt>
      <trkpt lat="46.44674" lon="6.12966">
        <ele>1194.549</ele>
        <time>2013-10-19T10:34:44Z</time>
      </trkpt>
      <trkpt lat="46.44673" lon="6.12947">
        <ele>1193.282</ele>
        <time>2013-10-19T10:34:59Z</time>
      </trkpt>
      <trkpt lat="46.44676" lon="6.12941">
        <ele>1192.214</ele>
        <time>2013-10-19T10:35:06Z</time>
      </trkpt>
      <trkpt lat="46.44679" lon="6.12922">
        <ele>1189.387</ele>
        <time>2013-10-19T10:35:23Z</time>
      </trkpt>
      <trkpt lat="46.44682" lon="6.12914">
        <ele>1187.441</ele>
        <time>2013-10-19T10:35:32Z</time>
      </trkpt>
      <trkpt lat="46.44693" lon="6.12901">
        <ele>1186.501</ele>
        <time>2013-10-19T10:35:49Z</time>
      </trkpt>
      <trkpt lat="46.44697" lon="6.12895">
        <ele>1185.928</ele>
        <time>2013-10-19T10:35:59Z</time>
      </trkpt>
      <trkpt lat="46.44703" lon="6.12893">
        <ele>1182.635</ele>
        <time>2013-10-19T10:36:14Z</time>
      </trkpt>
      <trkpt lat="46.44711" lon="6.12887">
        <ele>1179.96</ele>
        <time>2013-10-19T10:36:24Z</time>
      </trkpt>
      <trkpt lat="46.44715" lon="6.12887">
        <ele>1179.22</ele>
        <time>2013-10-19T10:36:28Z</time>
      </trkpt>
      <trkpt lat="46.44724" lon="6.12883">
        <ele>1177.328</ele>
        <time>2013-10-19T10:36:39Z</time>
      </trkpt>
      <trkpt lat="46.44728" lon="6.12875">
        <ele>1177.396</ele>
        <time>2013-10-19T10:36:45Z</time>
      </trkpt>
      <trkpt lat="46.4473" lon="6.12866">
        <ele>1177.625</ele>
        <time>2013-10-19T10:36:51Z</time>
      </trkpt>
      <trkpt lat="46.44734" lon="6.12853">
        <ele>1177.153</ele>
        <time>2013-10-19T10:37:02Z</time>
      </trkpt>
      <trkpt lat="46.44734" lon="6.12826">
        <ele>1177.772</ele>
        <time>2013-10-19T10:37:18Z</time>
      </trkpt>
      <trkpt lat="46.44736" lon="6.12821">
        <ele>1178.563</ele>
        <time>2013-10-19T10:37:24Z</time>
      </trkpt>
      <trkpt lat="46.44732" lon="6.12804">
        <ele>1178.785</ele>
        <time>2013-10-19T10:37:37Z</time>
      </trkpt>
      <trkpt lat="46.44741" lon="6.12775">
        <ele>1180.63</ele>
        <time>2013-10-19T10:37:59Z</time>
      </trkpt>
      <trkpt lat="46.44741" lon="6.12769">
        <ele>1180.688</ele>
        <time>2013-10-19T10:38:03Z</time>
      </trkpt>
      <trkpt lat="46.44741" lon="6.12759">
        <ele>1180.653</ele>
        <time>2013-10-19T10:38:09Z</time>
      </trkpt>
      <trkpt lat="46.44742" lon="6.12755">
        <ele>1180.652</ele>
        <time>2013-10-19T10:38:11Z</time>
      </trkpt>
      <trkpt lat="46.44742" lon="6.12752">
        <ele>1180.813</ele>
        <time>2013-10-19T10:38:13Z</time>
      </trkpt>
      <trkpt lat="46.44741" lon="6.1275">
        <ele>1180.659</ele>
        <time>2013-10-19T10:38:15Z</time>
      </trkpt>
      <trkpt lat="46.4474" lon="6.12745">
        <ele>1180.214</ele>
        <time>2013-10-19T10:38:18Z</time>
      </trkpt>
      <trkpt lat="46.44746" lon="6.12722">
        <ele>1177.593</ele>
        <time>2013-10-19T10:38:37Z</time>
      </trkpt>
      <trkpt lat="46.44746" lon="6.12721">
        <ele>1177.43</ele>
        <time>2013-10-19T10:38:38Z</time>
      </trkpt>
      <trkpt lat="46.44746" lon="6.12712">
        <ele>1176.26</ele>
        <time>2013-10-19T10:38:43Z</time>
      </trkpt>
      <trkpt lat="46.44745" lon="6.12694">
        <ele>1175.692</ele>
        <time>2013-10-19T10:38:54Z</time>
      </trkpt>
      <trkpt lat="46.44746" lon="6.12689">
        <ele>1175.992</ele>
        <time>2013-10-19T10:38:57Z</time>
      </trkpt>
      <trkpt lat="46.44747" lon="6.12685">
        <ele>1176.334</ele>
        <time>2013-10-19T10:39:00Z</time>
      </trkpt>
      <trkpt lat="46.44748" lon="6.12667">
        <ele>1177.026</ele>
        <time>2013-10-19T10:39:12Z</time>
      </trkpt>
      <trkpt lat="46.44751" lon="6.12655">
        <ele>1176.475</ele>
        <time>2013-10-19T10:39:20Z</time>
      </trkpt>
      <trkpt lat="46.44753" lon="6.12633">
        <ele>1175.786</ele>
        <time>2013-10-19T10:39:33Z</time>
      </trkpt>
      <trkpt lat="46.44753" lon="6.12629">
        <ele>1176.182</ele>
        <time>2013-10-19T10:39:37Z</time>
      </trkpt>
      <trkpt lat="46.44754" lon="6.12621">
        <ele>1176.547</ele>
        <time>2013-10-19T10:39:43Z</time>
      </trkpt>
      <trkpt lat="46.44754" lon="6.12616">
        <ele>1176.643</ele>
        <time>2013-10-19T10:39:47Z</time>
      </trkpt>
      <trkpt lat="46.44753" lon="6.12612">
        <ele>1176.696</ele>
        <time>2013-10-19T10:39:53Z</time>
      </trkpt>
      <trkpt lat="46.44755" lon="6.126">
        <ele>1176.598</ele>
        <time>2013-10-19T10:40:02Z</time>
      </trkpt>
      <trkpt lat="46.44758" lon="6.12597">
        <ele>1176.733</ele>
        <time>2013-10-19T10:40:05Z</time>
      </trkpt>
      <trkpt lat="46.44765" lon="6.12578">
        <ele>1178.005</ele>
        <time>2013-10-19T10:40:20Z</time>
      </trkpt>
      <trkpt lat="46.44765" lon="6.12573">
        <ele>1177.688</ele>
        <time>2013-10-19T10:40:24Z</time>
      </trkpt>
      <trkpt lat="46.44771" lon="6.12562">
        <ele>1176.241</ele>
        <time>2013-10-19T10:40:36Z</time>
      </trkpt>
      <trkpt lat="46.44764" lon="6.1255">
        <ele>1176.601</ele>
        <time>2013-10-19T10:40:44Z</time>
      </trkpt>
      <trkpt lat="46.44759" lon="6.12545">
        <ele>1177.044</ele>
        <time>2013-10-19T10:40:48Z</time>
      </trkpt>
      <trkpt lat="46.44735" lon="6.12523">
        <ele>1178.675</ele>
        <time>2013-10-19T10:41:04Z</time>
      </trkpt>
      <trkpt lat="46.44734" lon="6.12518">
        <ele>1179.033</ele>
        <time>2013-10-19T10:41:12Z</time>
      </trkpt>
      <trkpt lat="46.44735" lon="6.12505">
        <ele>1178.93</ele>
        <time>2013-10-19T10:41:23Z</time>
      </trkpt>
      <trkpt lat="46.44734" lon="6.12487">
        <ele>1179.815</ele>
        <time>2013-10-19T10:41:37Z</time>
      </trkpt>
      <trkpt lat="46.44735" lon="6.12479">
        <ele>1180.171</ele>
        <time>2013-10-19T10:41:43Z</time>
      </trkpt>
      <trkpt lat="46.44739" lon="6.12467">
        <ele>1180.91</ele>
        <time>2013-10-19T10:41:53Z</time>
      </trkpt>
      <trkpt lat="46.44746" lon="6.12457">
        <ele>1178.741</ele>
        <time>2013-10-19T10:42:05Z</time>
      </trkpt>
      <trkpt lat="46.44749" lon="6.12452">
        <ele>1178.561</ele>
        <time>2013-10-19T10:42:10Z</time>
      </trkpt>
      <trkpt lat="46.44752" lon="6.12442">
        <ele>1179.8</ele>
        <time>2013-10-19T10:42:17Z</time>
      </trkpt>
      <trkpt lat="46.4476" lon="6.12427">
        <ele>1180.039</ele>
        <time>2013-10-19T10:42:30Z</time>
      </trkpt>
      <trkpt lat="46.44765" lon="6.12416">
        <ele>1179.616</ele>
        <time>2013-10-19T10:42:41Z</time>
      </trkpt>
      <trkpt lat="46.44768" lon="6.12411">
        <ele>1179.611</ele>
        <time>2013-10-19T10:42:46Z</time>
      </trkpt>
      <trkpt lat="46.44774" lon="6.12398">
        <ele>1182.93</ele>
        <time>2013-10-19T10:42:57Z</time>
      </trkpt>
      <trkpt lat="46.44777" lon="6.12384">
        <ele>1183.412</ele>
        <time>2013-10-19T10:43:07Z</time>
      </trkpt>
      <trkpt lat="46.44777" lon="6.12381">
        <ele>1182.795</ele>
        <time>2013-10-19T10:43:09Z</time>
      </trkpt>
      <trkpt lat="46.44778" lon="6.12378">
        <ele>1181.9</ele>
        <time>2013-10-19T10:43:11Z</time>
      </trkpt>
      <trkpt lat="46.44779" lon="6.12377">
        <ele>1181.881</ele>
        <time>2013-10-19T10:43:12Z</time>
      </trkpt>
      <trkpt lat="46.44783" lon="6.12362">
        <ele>1183.362</ele>
        <time>2013-10-19T10:43:24Z</time>
      </trkpt>
      <trkpt lat="46.44785" lon="6.12335">
        <ele>1183.047</ele>
        <time>2013-10-19T10:43:48Z</time>
      </trkpt>
      <trkpt lat="46.44785" lon="6.12333">
        <ele>1182.855</ele>
        <time>2013-10-19T10:43:49Z</time>
      </trkpt>
      <trkpt lat="46.44784" lon="6.12327">
        <ele>1182.772</ele>
        <time>2013-10-19T10:43:53Z</time>
      </trkpt>
      <trkpt lat="46.44784" lon="6.12315">
        <ele>1182.823</ele>
        <time>2013-10-19T10:44:01Z</time>
      </trkpt>
      <trkpt lat="46.44783" lon="6.1231">
        <ele>1183.913</ele>
        <time>2013-10-19T10:44:05Z</time>
      </trkpt>
      <trkpt lat="46.4478" lon="6.12302">
        <ele>1184.607</ele>
        <time>2013-10-19T10:44:09Z</time>
      </trkpt>
      <trkpt lat="46.44782" lon="6.12284">
        <ele>1185.268</ele>
        <time>2013-10-19T10:44:23Z</time>
      </trkpt>
      <trkpt lat="46.44791" lon="6.12296">
        <ele>1184.965</ele>
        <time>2013-10-19T10:44:39Z</time>
      </trkpt>
      <trkpt lat="46.44789" lon="6.12296">
        <ele>1185.844</ele>
        <time>2013-10-19T10:45:18Z</time>
      </trkpt>
      <trkpt lat="46.44786" lon="6.12292">
        <ele>1186.34</ele>
        <time>2013-10-19T10:45:22Z</time>
      </trkpt>
      <trkpt lat="46.44786" lon="6.12288">
        <ele>1187.644</ele>
        <time>2013-10-19T10:45:25Z</time>
      </trkpt>
      <trkpt lat="46.44788" lon="6.12267">
        <ele>1186.428</ele>
        <time>2013-10-19T10:45:40Z</time>
      </trkpt>
      <trkpt lat="46.4479" lon="6.12258">
        <ele>1187.593</ele>
        <time>2013-10-19T10:45:47Z</time>
      </trkpt>
      <trkpt lat="46.4479" lon="6.12246">
        <ele>1188.62</ele>
        <time>2013-10-19T10:45:54Z</time>
      </trkpt>
      <trkpt lat="46.44791" lon="6.12242">
        <ele>1189.888</ele>
        <time>2013-10-19T10:45:57Z</time>
      </trkpt>
      <trkpt lat="46.44792" lon="6.12231">
        <ele>1190.12</ele>
        <time>2013-10-19T10:46:04Z</time>
      </trkpt>
      <trkpt lat="46.44792" lon="6.12228">
        <ele>1190.013</ele>
        <time>2013-10-19T10:46:06Z</time>
      </trkpt>
      <trkpt lat="46.44792" lon="6.12223">
        <ele>1190.359</ele>
        <time>2013-10-19T10:46:09Z</time>
      </trkpt>
      <trkpt lat="46.44793" lon="6.12214">
        <ele>1190.984</ele>
        <time>2013-10-19T10:46:16Z</time>
      </trkpt>
      <trkpt lat="46.44796" lon="6.12206">
        <ele>1192.061</ele>
        <time>2013-10-19T10:46:25Z</time>
      </trkpt>
      <trkpt lat="46.44798" lon="6.12194">
        <ele>1193.591</ele>
        <time>2013-10-19T10:46:39Z</time>
      </trkpt>
      <trkpt lat="46.44803" lon="6.12181">
        <ele>1195.834</ele>
        <time>2013-10-19T10:46:52Z</time>
      </trkpt>
      <trkpt lat="46.44807" lon="6.12166">
        <ele>1197.229</ele>
        <time>2013-10-19T10:47:10Z</time>
      </trkpt>
      <trkpt lat="46.44807" lon="6.12166">
        <ele>1200.508</ele>
        <time>2013-10-19T10:47:13Z</time>
      </trkpt>
      <trkpt lat="46.44808" lon="6.12169">
        <ele>1197.244</ele>
        <time>2013-10-19T10:47:28Z</time>
      </trkpt>
      <trkpt lat="46.44809" lon="6.12172">
        <ele>1196.25</ele>
        <time>2013-10-19T10:47:50Z</time>
      </trkpt>
      <trkpt lat="46.4481" lon="6.12163">
        <ele>1195.605</ele>
        <time>2013-10-19T10:47:58Z</time>
      </trkpt>
      <trkpt lat="46.44803" lon="6.12139">
        <ele>1197.074</ele>
        <time>2013-10-19T10:48:22Z</time>
      </trkpt>
      <trkpt lat="46.44804" lon="6.12139">
        <ele>1197.822</ele>
        <time>2013-10-19T10:48:34Z</time>
      </trkpt>
      <trkpt lat="46.44806" lon="6.12138">
        <ele>1198.971</ele>
        <time>2013-10-19T10:48:51Z</time>
      </trkpt>
      <trkpt lat="46.44806" lon="6.12132">
        <ele>1198.985</ele>
        <time>2013-10-19T10:48:56Z</time>
      </trkpt>
      <trkpt lat="46.44796" lon="6.12103">
        <ele>1197.057</ele>
        <time>2013-10-19T10:49:19Z</time>
      </trkpt>
      <trkpt lat="46.44792" lon="6.12091">
        <ele>1197.171</ele>
        <time>2013-10-19T10:49:29Z</time>
      </trkpt>
      <trkpt lat="46.44785" lon="6.12071">
        <ele>1196.475</ele>
        <time>2013-10-19T10:49:50Z</time>
      </trkpt>
      <trkpt lat="46.44775" lon="6.12065">
        <ele>1194.762</ele>
        <time>2013-10-19T10:50:09Z</time>
      </trkpt>
      <trkpt lat="46.44751" lon="6.12052">
        <ele>1191.547</ele>
        <time>2013-10-19T10:50:34Z</time>
      </trkpt>
      <trkpt lat="46.4473" lon="6.12037">
        <ele>1190.166</ele>
        <time>2013-10-19T10:50:56Z</time>
      </trkpt>
      <trkpt lat="46.4472" lon="6.12023">
        <ele>1188.68</ele>
        <time>2013-10-19T10:51:15Z</time>
      </trkpt>
      <trkpt lat="46.44719" lon="6.12019">
        <ele>1189.085</ele>
        <time>2013-10-19T10:51:34Z</time>
      </trkpt>
      <trkpt lat="46.4469" lon="6.11988">
        <ele>1189.017</ele>
        <time>2013-10-19T10:52:12Z</time>
      </trkpt>
      <trkpt lat="46.44675" lon="6.11957">
        <ele>1186.194</ele>
        <time>2013-10-19T10:52:43Z</time>
      </trkpt>
      <trkpt lat="46.4467" lon="6.1193">
        <ele>1184.651</ele>
        <time>2013-10-19T10:53:06Z</time>
      </trkpt>
      <trkpt lat="46.4467" lon="6.1192">
        <ele>1184.118</ele>
        <time>2013-10-19T10:53:31Z</time>
      </trkpt>
      <trkpt lat="46.44663" lon="6.11896">
        <ele>1181.085</ele>
        <time>2013-10-19T10:53:52Z</time>
      </trkpt>
      <trkpt lat="46.44658" lon="6.1187">
        <ele>1178.916</ele>
        <time>2013-10-19T10:54:19Z</time>
      </trkpt>
      <trkpt lat="46.44658" lon="6.11859">
        <ele>1178.009</ele>
        <time>2013-10-19T10:54:26Z</time>
      </trkpt>
      <trkpt lat="46.44658" lon="6.11825">
        <ele>1175.656</ele>
        <time>2013-10-19T10:54:50Z</time>
      </trkpt>
      <trkpt lat="46.4466" lon="6.11788">
        <ele>1174.801</ele>
        <time>2013-10-19T10:55:20Z</time>
      </trkpt>
      <trkpt lat="46.44672" lon="6.11768">
        <ele>1174.591</ele>
        <time>2013-10-19T10:55:42Z</time>
      </trkpt>
      <trkpt lat="46.44678" lon="6.11766">
        <ele>1174.025</ele>
        <time>2013-10-19T10:55:49Z</time>
      </trkpt>
      <trkpt lat="46.44695" lon="6.11757">
        <ele>1174.675</ele>
        <time>2013-10-19T10:56:11Z</time>
      </trkpt>
      <trkpt lat="46.44711" lon="6.11744">
        <ele>1175.411</ele>
        <time>2013-10-19T10:56:37Z</time>
      </trkpt>
      <trkpt lat="46.44732" lon="6.11731">
        <ele>1176.959</ele>
        <time>2013-10-19T10:57:01Z</time>
      </trkpt>
      <trkpt lat="46.44744" lon="6.11721">
        <ele>1177.063</ele>
        <time>2013-10-19T10:57:15Z</time>
      </trkpt>
      <trkpt lat="46.44748" lon="6.11718">
        <ele>1177.083</ele>
        <time>2013-10-19T10:57:19Z</time>
      </trkpt>
      <trkpt lat="46.4476" lon="6.11711">
        <ele>1177.3</ele>
        <time>2013-10-19T10:57:34Z</time>
      </trkpt>
      <trkpt lat="46.44771" lon="6.11711">
        <ele>1178.74</ele>
        <time>2013-10-19T10:57:48Z</time>
      </trkpt>
      <trkpt lat="46.4478" lon="6.11697">
        <ele>1178.298</ele>
        <time>2013-10-19T10:58:04Z</time>
      </trkpt>
      <trkpt lat="46.44795" lon="6.11685">
        <ele>1180.247</ele>
        <time>2013-10-19T10:58:22Z</time>
      </trkpt>
      <trkpt lat="46.44806" lon="6.11675">
        <ele>1181.945</ele>
        <time>2013-10-19T10:58:37Z</time>
      </trkpt>
      <trkpt lat="46.44812" lon="6.11669">
        <ele>1182.817</ele>
        <time>2013-10-19T10:58:47Z</time>
      </trkpt>
      <trkpt lat="46.44814" lon="6.11668">
        <ele>1182.812</ele>
        <time>2013-10-19T10:58:49Z</time>
      </trkpt>
      <trkpt lat="46.4482" lon="6.11657">
        <ele>1185.123</ele>
        <time>2013-10-19T10:59:01Z</time>
      </trkpt>
      <trkpt lat="46.44821" lon="6.11656">
        <ele>1186.148</ele>
        <time>2013-10-19T10:59:22Z</time>
      </trkpt>
      <trkpt lat="46.44825" lon="6.11646">
        <ele>1185.868</ele>
        <time>2013-10-19T10:59:34Z</time>
      </trkpt>
      <trkpt lat="46.44828" lon="6.11637">
        <ele>1187.585</ele>
        <time>2013-10-19T10:59:50Z</time>
      </trkpt>
      <trkpt lat="46.44836" lon="6.11615">
        <ele>1189.481</ele>
        <time>2013-10-19T11:00:15Z</time>
      </trkpt>
      <trkpt lat="46.44844" lon="6.11588">
        <ele>1186.438</ele>
        <time>2013-10-19T11:00:35Z</time>
      </trkpt>
      <trkpt lat="46.4485" lon="6.11559">
        <ele>1186.197</ele>
        <time>2013-10-19T11:00:57Z</time>
      </trkpt>
      <trkpt lat="46.44856" lon="6.1154">
        <ele>1186.297</ele>
        <time>2013-10-19T11:01:12Z</time>
      </trkpt>
      <trkpt lat="46.44869" lon="6.11526">
        <ele>1187.357</ele>
        <time>2013-10-19T11:01:29Z</time>
      </trkpt>
      <trkpt lat="46.44885" lon="6.1151">
        <ele>1185.157</ele>
        <time>2013-10-19T11:01:52Z</time>
      </trkpt>
      <trkpt lat="46.44895" lon="6.11496">
        <ele>1181.809</ele>
        <time>2013-10-19T11:02:09Z</time>
      </trkpt>
      <trkpt lat="46.44905" lon="6.11479">
        <ele>1178.627</ele>
        <time>2013-10-19T11:02:26Z</time>
      </trkpt>
      <trkpt lat="46.44923" lon="6.11451">
        <ele>1176.997</ele>
        <time>2013-10-19T11:02:54Z</time>
      </trkpt>
      <trkpt lat="46.4493" lon="6.11442">
        <ele>1176.406</ele>
        <time>2013-10-19T11:03:02Z</time>
      </trkpt>
      <trkpt lat="46.44939" lon="6.11428">
        <ele>1176.673</ele>
        <time>2013-10-19T11:03:16Z</time>
      </trkpt>
      <trkpt lat="46.44944" lon="6.11423">
        <ele>1176.077</ele>
        <time>2013-10-19T11:03:20Z</time>
      </trkpt>
      <trkpt lat="46.4495" lon="6.11416">
        <ele>1175.688</ele>
        <time>2013-10-19T11:03:29Z</time>
      </trkpt>
      <trkpt lat="46.44955" lon="6.11402">
        <ele>1177.473</ele>
        <time>2013-10-19T11:03:39Z</time>
      </trkpt>
      <trkpt lat="46.44959" lon="6.11391">
        <ele>1177.958</ele>
        <time>2013-10-19T11:03:49Z</time>
      </trkpt>
      <trkpt lat="46.44963" lon="6.11376">
        <ele>1178.484</ele>
        <time>2013-10-19T11:04:03Z</time>
      </trkpt>
      <trkpt lat="46.44967" lon="6.11367">
        <ele>1179.528</ele>
        <time>2013-10-19T11:04:11Z</time>
      </trkpt>
      <trkpt lat="46.44969" lon="6.11363">
        <ele>1179.505</ele>
        <time>2013-10-19T11:04:14Z</time>
      </trkpt>
      <trkpt lat="46.44971" lon="6.11358">
        <ele>1179.699</ele>
        <time>2013-10-19T11:04:19Z</time>
      </trkpt>
      <trkpt lat="46.44972" lon="6.11357">
        <ele>1180.121</ele>
        <time>2013-10-19T11:04:21Z</time>
      </trkpt>
      <trkpt lat="46.44974" lon="6.11353">
        <ele>1179.984</ele>
        <time>2013-10-19T11:04:24Z</time>
      </trkpt>
      <trkpt lat="46.44976" lon="6.11351">
        <ele>1180.566</ele>
        <time>2013-10-19T11:04:27Z</time>
      </trkpt>
      <trkpt lat="46.44979" lon="6.11346">
        <ele>1181.115</ele>
        <time>2013-10-19T11:04:34Z</time>
      </trkpt>
      <trkpt lat="46.44979" lon="6.11342">
        <ele>1181.271</ele>
        <time>2013-10-19T11:04:36Z</time>
      </trkpt>
      <trkpt lat="46.44982" lon="6.11335">
        <ele>1182.996</ele>
        <time>2013-10-19T11:04:44Z</time>
      </trkpt>
      <trkpt lat="46.44986" lon="6.11328">
        <ele>1183.454</ele>
        <time>2013-10-19T11:04:53Z</time>
      </trkpt>
      <trkpt lat="46.4499" lon="6.11327">
        <ele>1184.047</ele>
        <time>2013-10-19T11:04:59Z</time>
      </trkpt>
      <trkpt lat="46.44993" lon="6.11319">
        <ele>1185.379</ele>
        <time>2013-10-19T11:05:09Z</time>
      </trkpt>
      <trkpt lat="46.44993" lon="6.11316">
        <ele>1185.49</ele>
        <time>2013-10-19T11:05:11Z</time>
      </trkpt>
      <trkpt lat="46.44994" lon="6.11317">
        <ele>1185.948</ele>
        <time>2013-10-19T11:05:13Z</time>
      </trkpt>
      <trkpt lat="46.44995" lon="6.11314">
        <ele>1186.2</ele>
        <time>2013-10-19T11:05:16Z</time>
      </trkpt>
      <trkpt lat="46.45" lon="6.11307">
        <ele>1188.625</ele>
        <time>2013-10-19T11:05:25Z</time>
      </trkpt>
      <trkpt lat="46.45006" lon="6.11299">
        <ele>1191.012</ele>
        <time>2013-10-19T11:05:40Z</time>
      </trkpt>
      <trkpt lat="46.45007" lon="6.11295">
        <ele>1191.521</ele>
        <time>2013-10-19T11:05:44Z</time>
      </trkpt>
      <trkpt lat="46.45008" lon="6.1129">
        <ele>1192.341</ele>
        <time>2013-10-19T11:05:49Z</time>
      </trkpt>
      <trkpt lat="46.45016" lon="6.11278">
        <ele>1193.238</ele>
        <time>2013-10-19T11:06:02Z</time>
      </trkpt>
      <trkpt lat="46.45019" lon="6.11278">
        <ele>1194.292</ele>
        <time>2013-10-19T11:06:06Z</time>
      </trkpt>
      <trkpt lat="46.45023" lon="6.11274">
        <ele>1194.229</ele>
        <time>2013-10-19T11:06:11Z</time>
      </trkpt>
      <trkpt lat="46.45027" lon="6.11267">
        <ele>1194.461</ele>
        <time>2013-10-19T11:06:18Z</time>
      </trkpt>
      <trkpt lat="46.45032" lon="6.11264">
        <ele>1195.674</ele>
        <time>2013-10-19T11:06:25Z</time>
      </trkpt>
      <trkpt lat="46.45033" lon="6.11261">
        <ele>1195.568</ele>
        <time>2013-10-19T11:06:27Z</time>
      </trkpt>
      <trkpt lat="46.45038" lon="6.11258">
        <ele>1196.728</ele>
        <time>2013-10-19T11:06:36Z</time>
      </trkpt>
      <trkpt lat="46.45043" lon="6.11256">
        <ele>1195.579</ele>
        <time>2013-10-19T11:07:30Z</time>
      </trkpt>
      <trkpt lat="46.45046" lon="6.11254">
        <ele>1195.779</ele>
        <time>2013-10-19T11:07:34Z</time>
      </trkpt>
      <trkpt lat="46.45053" lon="6.11249">
        <ele>1196.134</ele>
        <time>2013-10-19T11:07:42Z</time>
      </trkpt>
      <trkpt lat="46.45055" lon="6.11247">
        <ele>1196.371</ele>
        <time>2013-10-19T11:07:45Z</time>
      </trkpt>
      <trkpt lat="46.4506" lon="6.11245">
        <ele>1196.003</ele>
        <time>2013-10-19T11:07:50Z</time>
      </trkpt>
      <trkpt lat="46.45062" lon="6.11238">
        <ele>1195.297</ele>
        <time>2013-10-19T11:08:01Z</time>
      </trkpt>
      <trkpt lat="46.4507" lon="6.11224">
        <ele>1195.358</ele>
        <time>2013-10-19T11:08:16Z</time>
      </trkpt>
      <trkpt lat="46.45071" lon="6.11222">
        <ele>1195.681</ele>
        <time>2013-10-19T11:08:18Z</time>
      </trkpt>
      <trkpt lat="46.45074" lon="6.1122">
        <ele>1195.936</ele>
        <time>2013-10-19T11:08:21Z</time>
      </trkpt>
      <trkpt lat="46.45082" lon="6.11211">
        <ele>1197.295</ele>
        <time>2013-10-19T11:08:32Z</time>
      </trkpt>
      <trkpt lat="46.45086" lon="6.11205">
        <ele>1197.112</ele>
        <time>2013-10-19T11:08:38Z</time>
      </trkpt>
      <trkpt lat="46.45089" lon="6.11203">
        <ele>1197.25</ele>
        <time>2013-10-19T11:08:41Z</time>
      </trkpt>
      <trkpt lat="46.45101" lon="6.11193">
        <ele>1198.573</ele>
        <time>2013-10-19T11:08:57Z</time>
      </trkpt>
      <trkpt lat="46.45103" lon="6.11188">
        <ele>1199.678</ele>
        <time>2013-10-19T11:09:15Z</time>
      </trkpt>
      <trkpt lat="46.45104" lon="6.11189">
        <ele>1199.504</ele>
        <time>2013-10-19T11:09:42Z</time>
      </trkpt>
      <trkpt lat="46.45114" lon="6.11181">
        <ele>1199.102</ele>
        <time>2013-10-19T11:10:03Z</time>
      </trkpt>
      <trkpt lat="46.45128" lon="6.11167">
        <ele>1197.769</ele>
        <time>2013-10-19T11:10:24Z</time>
      </trkpt>
      <trkpt lat="46.45141" lon="6.11134">
        <ele>1197.268</ele>
        <time>2013-10-19T11:10:54Z</time>
      </trkpt>
      <trkpt lat="46.45149" lon="6.11098">
        <ele>1196.378</ele>
        <time>2013-10-19T11:11:21Z</time>
      </trkpt>
      <trkpt lat="46.45159" lon="6.11056">
        <ele>1195.518</ele>
        <time>2013-10-19T11:11:52Z</time>
      </trkpt>
      <trkpt lat="46.45167" lon="6.11022">
        <ele>1194.722</ele>
        <time>2013-10-19T11:12:16Z</time>
      </trkpt>
      <trkpt lat="46.45175" lon="6.10991">
        <ele>1196.045</ele>
        <time>2013-10-19T11:12:39Z</time>
      </trkpt>
      <trkpt lat="46.45184" lon="6.10966">
        <ele>1196.775</ele>
        <time>2013-10-19T11:12:59Z</time>
      </trkpt>
      <trkpt lat="46.45191" lon="6.10942">
        <ele>1194.909</ele>
        <time>2013-10-19T11:13:17Z</time>
      </trkpt>
      <trkpt lat="46.45202" lon="6.10905">
        <ele>1195.145</ele>
        <time>2013-10-19T11:13:42Z</time>
      </trkpt>
      <trkpt lat="46.45207" lon="6.10887">
        <ele>1196.84</ele>
        <time>2013-10-19T11:13:56Z</time>
      </trkpt>
      <trkpt lat="46.45209" lon="6.10881">
        <ele>1197.37</ele>
        <time>2013-10-19T11:14:01Z</time>
      </trkpt>
      <trkpt lat="46.45211" lon="6.10872">
        <ele>1197.548</ele>
        <time>2013-10-19T11:14:07Z</time>
      </trkpt>
      <trkpt lat="46.45219" lon="6.10837">
        <ele>1200.369</ele>
        <time>2013-10-19T11:14:32Z</time>
      </trkpt>
      <trkpt lat="46.45222" lon="6.10825">
        <ele>1200.167</ele>
        <time>2013-10-19T11:14:41Z</time>
      </trkpt>
      <trkpt lat="46.45224" lon="6.10806">
        <ele>1198.885</ele>
        <time>2013-10-19T11:15:00Z</time>
      </trkpt>
      <trkpt lat="46.45227" lon="6.1078">
        <ele>1199.608</ele>
        <time>2013-10-19T11:15:22Z</time>
      </trkpt>
      <trkpt lat="46.4523" lon="6.10754">
        <ele>1198.933</ele>
        <time>2013-10-19T11:15:42Z</time>
      </trkpt>
      <trkpt lat="46.45236" lon="6.10718">
        <ele>1199.371</ele>
        <time>2013-10-19T11:16:07Z</time>
      </trkpt>
      <trkpt lat="46.4524" lon="6.10698">
        <ele>1198.028</ele>
        <time>2013-10-19T11:16:23Z</time>
      </trkpt>
      <trkpt lat="46.45239" lon="6.10678">
        <ele>1199.99</ele>
        <time>2013-10-19T11:16:38Z</time>
      </trkpt>
      <trkpt lat="46.45249" lon="6.10659">
        <ele>1197.872</ele>
        <time>2013-10-19T11:16:56Z</time>
      </trkpt>
      <trkpt lat="46.45253" lon="6.10648">
        <ele>1199.582</ele>
        <time>2013-10-19T11:17:18Z</time>
      </trkpt>
      <trkpt lat="46.45253" lon="6.10645">
        <ele>1198.715</ele>
        <time>2013-10-19T11:17:32Z</time>
      </trkpt>
      <trkpt lat="46.45253" lon="6.10643">
        <ele>1199.557</ele>
        <time>2013-10-19T11:17:34Z</time>
      </trkpt>
      <trkpt lat="46.45247" lon="6.10609">
        <ele>1196.295</ele>
        <time>2013-10-19T11:17:56Z</time>
      </trkpt>
      <trkpt lat="46.45246" lon="6.10604">
        <ele>1197.921</ele>
        <time>2013-10-19T11:17:59Z</time>
      </trkpt>
      <trkpt lat="46.45239" lon="6.10578">
        <ele>1199.364</ele>
        <time>2013-10-19T11:18:16Z</time>
      </trkpt>
      <trkpt lat="46.45236" lon="6.10569">
        <ele>1197.813</ele>
        <time>2013-10-19T11:18:22Z</time>
      </trkpt>
      <trkpt lat="46.45229" lon="6.10534">
        <ele>1199.121</ele>
        <time>2013-10-19T11:18:46Z</time>
      </trkpt>
      <trkpt lat="46.45225" lon="6.10513">
        <ele>1198.364</ele>
        <time>2013-10-19T11:19:06Z</time>
      </trkpt>
      <trkpt lat="46.45225" lon="6.10513">
        <ele>1199.092</ele>
        <time>2013-10-19T11:19:12Z</time>
      </trkpt>
      <trkpt lat="46.45225" lon="6.10511">
        <ele>1198.085</ele>
        <time>2013-10-19T11:19:14Z</time>
      </trkpt>
      <trkpt lat="46.45223" lon="6.10505">
        <ele>1196.63</ele>
        <time>2013-10-19T11:19:18Z</time>
      </trkpt>
      <trkpt lat="46.45221" lon="6.10499">
        <ele>1197.219</ele>
        <time>2013-10-19T11:19:22Z</time>
      </trkpt>
      <trkpt lat="46.45214" lon="6.10482">
        <ele>1196.62</ele>
        <time>2013-10-19T11:19:35Z</time>
      </trkpt>
      <trkpt lat="46.45205" lon="6.10454">
        <ele>1195.157</ele>
        <time>2013-10-19T11:19:57Z</time>
      </trkpt>
      <trkpt lat="46.45195" lon="6.10442">
        <ele>1192.712</ele>
        <time>2013-10-19T11:20:13Z</time>
      </trkpt>
      <trkpt lat="46.45193" lon="6.1044">
        <ele>1192.317</ele>
        <time>2013-10-19T11:20:16Z</time>
      </trkpt>
      <trkpt lat="46.4519" lon="6.10439">
        <ele>1191.777</ele>
        <time>2013-10-19T11:20:19Z</time>
      </trkpt>
      <trkpt lat="46.45177" lon="6.10405">
        <ele>1190.082</ele>
        <time>2013-10-19T11:20:45Z</time>
      </trkpt>
      <trkpt lat="46.45174" lon="6.10391">
        <ele>1190.307</ele>
        <time>2013-10-19T11:20:56Z</time>
      </trkpt>
      <trkpt lat="46.45169" lon="6.10375">
        <ele>1191.616</ele>
        <time>2013-10-19T11:21:11Z</time>
      </trkpt>
      <trkpt lat="46.45163" lon="6.10358">
        <ele>1194.79</ele>
        <time>2013-10-19T11:21:24Z</time>
      </trkpt>
      <trkpt lat="46.45162" lon="6.10354">
        <ele>1192.04</ele>
        <time>2013-10-19T11:21:27Z</time>
      </trkpt>
      <trkpt lat="46.45157" lon="6.10333">
        <ele>1191.024</ele>
        <time>2013-10-19T11:21:43Z</time>
      </trkpt>
      <trkpt lat="46.45156" lon="6.10327">
        <ele>1189.049</ele>
        <time>2013-10-19T11:21:47Z</time>
      </trkpt>
      <trkpt lat="46.45155" lon="6.10324">
        <ele>1190.598</ele>
        <time>2013-10-19T11:21:49Z</time>
      </trkpt>
      <trkpt lat="46.45155" lon="6.10323">
        <ele>1190.255</ele>
        <time>2013-10-19T11:21:50Z</time>
      </trkpt>
      <trkpt lat="46.45156" lon="6.10317">
        <ele>1191.969</ele>
        <time>2013-10-19T11:21:54Z</time>
      </trkpt>
      <trkpt lat="46.45154" lon="6.10308">
        <ele>1191.856</ele>
        <time>2013-10-19T11:22:01Z</time>
      </trkpt>
      <trkpt lat="46.45154" lon="6.10304">
        <ele>1193.339</ele>
        <time>2013-10-19T11:22:03Z</time>
      </trkpt>
      <trkpt lat="46.45149" lon="6.10289">
        <ele>1193.29</ele>
        <time>2013-10-19T11:22:19Z</time>
      </trkpt>
      <trkpt lat="46.45144" lon="6.10269">
        <ele>1196.42</ele>
        <time>2013-10-19T11:22:35Z</time>
      </trkpt>
      <trkpt lat="46.4514" lon="6.1025">
        <ele>1196.382</ele>
        <time>2013-10-19T11:22:54Z</time>
      </trkpt>
      <trkpt lat="46.4514" lon="6.10245">
        <ele>1196.836</ele>
        <time>2013-10-19T11:23:22Z</time>
      </trkpt>
      <trkpt lat="46.45141" lon="6.10245">
        <ele>1198.017</ele>
        <time>2013-10-19T11:23:42Z</time>
      </trkpt>
      <trkpt lat="46.45137" lon="6.1023">
        <ele>1195.483</ele>
        <time>2013-10-19T11:23:55Z</time>
      </trkpt>
      <trkpt lat="46.45135" lon="6.10216">
        <ele>1199.483</ele>
        <time>2013-10-19T11:24:05Z</time>
      </trkpt>
      <trkpt lat="46.45135" lon="6.10214">
        <ele>1199.514</ele>
        <time>2013-10-19T11:24:06Z</time>
      </trkpt>
      <trkpt lat="46.45127" lon="6.10195">
        <ele>1199.621</ele>
        <time>2013-10-19T11:24:21Z</time>
      </trkpt>
      <trkpt lat="46.45112" lon="6.10163">
        <ele>1199.654</ele>
        <time>2013-10-19T11:24:45Z</time>
      </trkpt>
      <trkpt lat="46.451" lon="6.10135">
        <ele>1200.633</ele>
        <time>2013-10-19T11:25:06Z</time>
      </trkpt>
      <trkpt lat="46.45088" lon="6.10112">
        <ele>1201.195</ele>
        <time>2013-10-19T11:25:26Z</time>
      </trkpt>
      <trkpt lat="46.45076" lon="6.10084">
        <ele>1202.014</ele>
        <time>2013-10-19T11:25:47Z</time>
      </trkpt>
      <trkpt lat="46.45064" lon="6.10058">
        <ele>1202.696</ele>
        <time>2013-10-19T11:26:07Z</time>
      </trkpt>
      <trkpt lat="46.45055" lon="6.10041">
        <ele>1204.524</ele>
        <time>2013-10-19T11:26:21Z</time>
      </trkpt>
      <trkpt lat="46.45047" lon="6.10021">
        <ele>1205.53</ele>
        <time>2013-10-19T11:26:36Z</time>
      </trkpt>
      <trkpt lat="46.45044" lon="6.10016">
        <ele>1205.145</ele>
        <time>2013-10-19T11:26:41Z</time>
      </trkpt>
      <trkpt lat="46.45035" lon="6.09996">
        <ele>1206.287</ele>
        <time>2013-10-19T11:26:54Z</time>
      </trkpt>
      <trkpt lat="46.45028" lon="6.09979">
        <ele>1207.757</ele>
        <time>2013-10-19T11:27:07Z</time>
      </trkpt>
      <trkpt lat="46.45022" lon="6.09967">
        <ele>1209.547</ele>
        <time>2013-10-19T11:27:18Z</time>
      </trkpt>
      <trkpt lat="46.45016" lon="6.09954">
        <ele>1210.8</ele>
        <time>2013-10-19T11:27:30Z</time>
      </trkpt>
      <trkpt lat="46.45017" lon="6.09953">
        <ele>1211.85</ele>
        <time>2013-10-19T11:27:38Z</time>
      </trkpt>
      <trkpt lat="46.45016" lon="6.09952">
        <ele>1210.49</ele>
        <time>2013-10-19T11:27:48Z</time>
      </trkpt>
      <trkpt lat="46.45017" lon="6.09952">
        <ele>1212.694</ele>
        <time>2013-10-19T11:27:50Z</time>
      </trkpt>
      <trkpt lat="46.45011" lon="6.0994">
        <ele>1212.396</ele>
        <time>2013-10-19T11:28:06Z</time>
      </trkpt>
      <trkpt lat="46.45005" lon="6.09925">
        <ele>1214.325</ele>
        <time>2013-10-19T11:28:18Z</time>
      </trkpt>
      <trkpt lat="46.44998" lon="6.09907">
        <ele>1215.238</ele>
        <time>2013-10-19T11:28:32Z</time>
      </trkpt>
      <trkpt lat="46.44993" lon="6.09895">
        <ele>1216.362</ele>
        <time>2013-10-19T11:28:43Z</time>
      </trkpt>
      <trkpt lat="46.44985" lon="6.09883">
        <ele>1214.996</ele>
        <time>2013-10-19T11:28:53Z</time>
      </trkpt>
      <trkpt lat="46.44983" lon="6.09881">
        <ele>1216.882</ele>
        <time>2013-10-19T11:28:56Z</time>
      </trkpt>
      <trkpt lat="46.4497" lon="6.09864">
        <ele>1218.192</ele>
        <time>2013-10-19T11:29:13Z</time>
      </trkpt>
      <trkpt lat="46.4496" lon="6.09852">
        <ele>1218.862</ele>
        <time>2013-10-19T11:29:26Z</time>
      </trkpt>
      <trkpt lat="46.44946" lon="6.09838">
        <ele>1219.104</ele>
        <time>2013-10-19T11:29:41Z</time>
      </trkpt>
      <trkpt lat="46.44925" lon="6.09805">
        <ele>1219.11</ele>
        <time>2013-10-19T11:30:09Z</time>
      </trkpt>
      <trkpt lat="46.44909" lon="6.09775">
        <ele>1215.28</ele>
        <time>2013-10-19T11:30:33Z</time>
      </trkpt>
      <trkpt lat="46.44895" lon="6.09757">
        <ele>1215.74</ele>
        <time>2013-10-19T11:30:51Z</time>
      </trkpt>
      <trkpt lat="46.4487" lon="6.09725">
        <ele>1215.941</ele>
        <time>2013-10-19T11:31:23Z</time>
      </trkpt>
      <trkpt lat="46.44853" lon="6.09703">
        <ele>1214.433</ele>
        <time>2013-10-19T11:31:43Z</time>
      </trkpt>
      <trkpt lat="46.44849" lon="6.09698">
        <ele>1215.439</ele>
        <time>2013-10-19T11:31:52Z</time>
      </trkpt>
      <trkpt lat="46.44845" lon="6.09697">
        <ele>1213.307</ele>
        <time>2013-10-19T11:31:56Z</time>
      </trkpt>
      <trkpt lat="46.44832" lon="6.09684">
        <ele>1215.484</ele>
        <time>2013-10-19T11:32:13Z</time>
      </trkpt>
      <trkpt lat="46.44823" lon="6.09669">
        <ele>1216.018</ele>
        <time>2013-10-19T11:32:28Z</time>
      </trkpt>
      <trkpt lat="46.44807" lon="6.09641">
        <ele>1215.265</ele>
        <time>2013-10-19T11:32:50Z</time>
      </trkpt>
      <trkpt lat="46.44797" lon="6.09622">
        <ele>1215.632</ele>
        <time>2013-10-19T11:33:03Z</time>
      </trkpt>
      <trkpt lat="46.44791" lon="6.09596">
        <ele>1216.405</ele>
        <time>2013-10-19T11:33:19Z</time>
      </trkpt>
      <trkpt lat="46.44786" lon="6.09567">
        <ele>1218.512</ele>
        <time>2013-10-19T11:33:38Z</time>
      </trkpt>
      <trkpt lat="46.4478" lon="6.09548">
        <ele>1219.538</ele>
        <time>2013-10-19T11:33:54Z</time>
      </trkpt>
      <trkpt lat="46.44771" lon="6.09525">
        <ele>1221.193</ele>
        <time>2013-10-19T11:34:11Z</time>
      </trkpt>
      <trkpt lat="46.44771" lon="6.09497">
        <ele>1221.19</ele>
        <time>2013-10-19T11:34:30Z</time>
      </trkpt>
      <trkpt lat="46.44772" lon="6.09476">
        <ele>1222.774</ele>
        <time>2013-10-19T11:34:46Z</time>
      </trkpt>
      <trkpt lat="46.44769" lon="6.09435">
        <ele>1223.208</ele>
        <time>2013-10-19T11:35:13Z</time>
      </trkpt>
      <trkpt lat="46.44766" lon="6.09407">
        <ele>1225.229</ele>
        <time>2013-10-19T11:35:32Z</time>
      </trkpt>
      <trkpt lat="46.44757" lon="6.09369">
        <ele>1226.997</ele>
        <time>2013-10-19T11:35:57Z</time>
      </trkpt>
      <trkpt lat="46.44752" lon="6.09352">
        <ele>1227.687</ele>
        <time>2013-10-19T11:36:09Z</time>
      </trkpt>
      <trkpt lat="46.44745" lon="6.09333">
        <ele>1228.745</ele>
        <time>2013-10-19T11:36:24Z</time>
      </trkpt>
      <trkpt lat="46.44737" lon="6.09313">
        <ele>1229.02</ele>
        <time>2013-10-19T11:36:39Z</time>
      </trkpt>
      <trkpt lat="46.44731" lon="6.09297">
        <ele>1230.001</ele>
        <time>2013-10-19T11:36:50Z</time>
      </trkpt>
      <trkpt lat="46.44724" lon="6.09274">
        <ele>1230.893</ele>
        <time>2013-10-19T11:37:06Z</time>
      </trkpt>
      <trkpt lat="46.44723" lon="6.0927">
        <ele>1232.209</ele>
        <time>2013-10-19T11:37:09Z</time>
      </trkpt>
      <trkpt lat="46.44715" lon="6.09251">
        <ele>1231.921</ele>
        <time>2013-10-19T11:37:25Z</time>
      </trkpt>
      <trkpt lat="46.44704" lon="6.09216">
        <ele>1232.795</ele>
        <time>2013-10-19T11:37:49Z</time>
      </trkpt>
      <trkpt lat="46.44696" lon="6.09189">
        <ele>1234.288</ele>
        <time>2013-10-19T11:38:07Z</time>
      </trkpt>
      <trkpt lat="46.44686" lon="6.09164">
        <ele>1233.391</ele>
        <time>2013-10-19T11:38:25Z</time>
      </trkpt>
      <trkpt lat="46.44683" lon="6.09159">
        <ele>1235.438</ele>
        <time>2013-10-19T11:38:29Z</time>
      </trkpt>
      <trkpt lat="46.44682" lon="6.09157">
        <ele>1236.428</ele>
        <time>2013-10-19T11:38:31Z</time>
      </trkpt>
      <trkpt lat="46.44672" lon="6.09133">
        <ele>1236.776</ele>
        <time>2013-10-19T11:38:48Z</time>
      </trkpt>
      <trkpt lat="46.44661" lon="6.09111">
        <ele>1237.078</ele>
        <time>2013-10-19T11:39:07Z</time>
      </trkpt>
      <trkpt lat="46.44651" lon="6.09095">
        <ele>1237.32</ele>
        <time>2013-10-19T11:39:20Z</time>
      </trkpt>
      <trkpt lat="46.44646" lon="6.09089">
        <ele>1237.757</ele>
        <time>2013-10-19T11:39:26Z</time>
      </trkpt>
      <trkpt lat="46.44627" lon="6.09075">
        <ele>1237.12</ele>
        <time>2013-10-19T11:39:45Z</time>
      </trkpt>
      <trkpt lat="46.44605" lon="6.09054">
        <ele>1234.036</ele>
        <time>2013-10-19T11:40:07Z</time>
      </trkpt>
      <trkpt lat="46.44601" lon="6.09049">
        <ele>1235.739</ele>
        <time>2013-10-19T11:40:12Z</time>
      </trkpt>
      <trkpt lat="46.44598" lon="6.09045">
        <ele>1236.53</ele>
        <time>2013-10-19T11:40:15Z</time>
      </trkpt>
      <trkpt lat="46.44593" lon="6.09037">
        <ele>1234.235</ele>
        <time>2013-10-19T11:40:22Z</time>
      </trkpt>
      <trkpt lat="46.44585" lon="6.09024">
        <ele>1235.237</ele>
        <time>2013-10-19T11:40:35Z</time>
      </trkpt>
      <trkpt lat="46.44576" lon="6.09006">
        <ele>1234.081</ele>
        <time>2013-10-19T11:40:49Z</time>
      </trkpt>
      <trkpt lat="46.44568" lon="6.08993">
        <ele>1234.585</ele>
        <time>2013-10-19T11:40:58Z</time>
      </trkpt>
      <trkpt lat="46.4456" lon="6.08978">
        <ele>1234.078</ele>
        <time>2013-10-19T11:41:10Z</time>
      </trkpt>
      <trkpt lat="46.44558" lon="6.08973">
        <ele>1233.164</ele>
        <time>2013-10-19T11:41:15Z</time>
      </trkpt>
      <trkpt lat="46.44557" lon="6.08969">
        <ele>1232.536</ele>
        <time>2013-10-19T11:41:17Z</time>
      </trkpt>
      <trkpt lat="46.44552" lon="6.08952">
        <ele>1231.533</ele>
        <time>2013-10-19T11:41:28Z</time>
      </trkpt>
      <trkpt lat="46.44552" lon="6.08949">
        <ele>1231.578</ele>
        <time>2013-10-19T11:41:30Z</time>
      </trkpt>
      <trkpt lat="46.44547" lon="6.08935">
        <ele>1232.395</ele>
        <time>2013-10-19T11:41:36Z</time>
      </trkpt>
      <trkpt lat="46.44548" lon="6.08927">
        <ele>1232.613</ele>
        <time>2013-10-19T11:41:42Z</time>
      </trkpt>
      <trkpt lat="46.44542" lon="6.0891">
        <ele>1232.279</ele>
        <time>2013-10-19T11:41:53Z</time>
      </trkpt>
      <trkpt lat="46.44543" lon="6.08908">
        <ele>1233.771</ele>
        <time>2013-10-19T11:41:56Z</time>
      </trkpt>
      <trkpt lat="46.44535" lon="6.08892">
        <ele>1233.366</ele>
        <time>2013-10-19T11:42:06Z</time>
      </trkpt>
      <trkpt lat="46.44534" lon="6.08888">
        <ele>1234.04</ele>
        <time>2013-10-19T11:42:09Z</time>
      </trkpt>
      <trkpt lat="46.44527" lon="6.08869">
        <ele>1231.62</ele>
        <time>2013-10-19T11:42:21Z</time>
      </trkpt>
      <trkpt lat="46.44521" lon="6.08854">
        <ele>1233.458</ele>
        <time>2013-10-19T11:42:32Z</time>
      </trkpt>
      <trkpt lat="46.44518" lon="6.08838">
        <ele>1232.961</ele>
        <time>2013-10-19T11:42:44Z</time>
      </trkpt>
      <trkpt lat="46.44516" lon="6.08835">
        <ele>1233.121</ele>
        <time>2013-10-19T11:42:46Z</time>
      </trkpt>
      <trkpt lat="46.44504" lon="6.08826">
        <ele>1232.779</ele>
        <time>2013-10-19T11:42:59Z</time>
      </trkpt>
      <trkpt lat="46.44498" lon="6.08826">
        <ele>1233.99</ele>
        <time>2013-10-19T11:43:02Z</time>
      </trkpt>
      <trkpt lat="46.44488" lon="6.08827">
        <ele>1233.695</ele>
        <time>2013-10-19T11:43:12Z</time>
      </trkpt>
      <trkpt lat="46.44475" lon="6.08829">
        <ele>1232.625</ele>
        <time>2013-10-19T11:43:25Z</time>
      </trkpt>
      <trkpt lat="46.44463" lon="6.08825">
        <ele>1232.409</ele>
        <time>2013-10-19T11:43:34Z</time>
      </trkpt>
      <trkpt lat="46.44449" lon="6.08813">
        <ele>1233.606</ele>
        <time>2013-10-19T11:43:48Z</time>
      </trkpt>
      <trkpt lat="46.44434" lon="6.08803">
        <ele>1232.615</ele>
        <time>2013-10-19T11:44:01Z</time>
      </trkpt>
      <trkpt lat="46.44429" lon="6.08797">
        <ele>1232.265</ele>
        <time>2013-10-19T11:44:04Z</time>
      </trkpt>
      <trkpt lat="46.44423" lon="6.08796">
        <ele>1230.82</ele>
        <time>2013-10-19T11:44:10Z</time>
      </trkpt>
      <trkpt lat="46.44416" lon="6.0879">
        <ele>1233.665</ele>
        <time>2013-10-19T11:44:15Z</time>
      </trkpt>
      <trkpt lat="46.44415" lon="6.08789">
        <ele>1232.468</ele>
        <time>2013-10-19T11:44:16Z</time>
      </trkpt>
      <trkpt lat="46.44403" lon="6.0878">
        <ele>1232.585</ele>
        <time>2013-10-19T11:44:26Z</time>
      </trkpt>
      <trkpt lat="46.44391" lon="6.08772">
        <ele>1231.328</ele>
        <time>2013-10-19T11:44:37Z</time>
      </trkpt>
      <trkpt lat="46.44387" lon="6.08772">
        <ele>1230.922</ele>
        <time>2013-10-19T11:44:39Z</time>
      </trkpt>
      <trkpt lat="46.44374" lon="6.08759">
        <ele>1232.213</ele>
        <time>2013-10-19T11:44:49Z</time>
      </trkpt>
      <trkpt lat="46.44371" lon="6.08755">
        <ele>1231.9</ele>
        <time>2013-10-19T11:44:53Z</time>
      </trkpt>
      <trkpt lat="46.44367" lon="6.08746">
        <ele>1231.72</ele>
        <time>2013-10-19T11:45:02Z</time>
      </trkpt>
      <trkpt lat="46.44366" lon="6.08745">
        <ele>1232.085</ele>
        <time>2013-10-19T11:45:04Z</time>
      </trkpt>
      <trkpt lat="46.44359" lon="6.08727">
        <ele>1233.418</ele>
        <time>2013-10-19T11:45:13Z</time>
      </trkpt>
      <trkpt lat="46.44359" lon="6.0872">
        <ele>1232.614</ele>
        <time>2013-10-19T11:45:19Z</time>
      </trkpt>
      <trkpt lat="46.44355" lon="6.08711">
        <ele>1232.487</ele>
        <time>2013-10-19T11:45:27Z</time>
      </trkpt>
      <trkpt lat="46.44355" lon="6.0871">
        <ele>1232.954</ele>
        <time>2013-10-19T11:45:29Z</time>
      </trkpt>
      <trkpt lat="46.44344" lon="6.08697">
        <ele>1234.406</ele>
        <time>2013-10-19T11:45:38Z</time>
      </trkpt>
      <trkpt lat="46.44336" lon="6.08687">
        <ele>1233.617</ele>
        <time>2013-10-19T11:45:47Z</time>
      </trkpt>
      <trkpt lat="46.4433" lon="6.08679">
        <ele>1233.208</ele>
        <time>2013-10-19T11:45:55Z</time>
      </trkpt>
      <trkpt lat="46.44327" lon="6.08666">
        <ele>1232.939</ele>
        <time>2013-10-19T11:46:01Z</time>
      </trkpt>
      <trkpt lat="46.44321" lon="6.08659">
        <ele>1233.584</ele>
        <time>2013-10-19T11:46:15Z</time>
      </trkpt>
      <trkpt lat="46.44319" lon="6.08657">
        <ele>1233.387</ele>
        <time>2013-10-19T11:46:19Z</time>
      </trkpt>
      <trkpt lat="46.44313" lon="6.08653">
        <ele>1233.218</ele>
        <time>2013-10-19T11:46:26Z</time>
      </trkpt>
      <trkpt lat="46.44312" lon="6.08644">
        <ele>1232.743</ele>
        <time>2013-10-19T11:46:33Z</time>
      </trkpt>
      <trkpt lat="46.44311" lon="6.08635">
        <ele>1231.868</ele>
        <time>2013-10-19T11:46:38Z</time>
      </trkpt>
      <trkpt lat="46.4431" lon="6.08634">
        <ele>1231.839</ele>
        <time>2013-10-19T11:46:39Z</time>
      </trkpt>
      <trkpt lat="46.44306" lon="6.08629">
        <ele>1232.516</ele>
        <time>2013-10-19T11:46:44Z</time>
      </trkpt>
      <trkpt lat="46.44305" lon="6.08627">
        <ele>1232.803</ele>
        <time>2013-10-19T11:46:45Z</time>
      </trkpt>
      <trkpt lat="46.44301" lon="6.08611">
        <ele>1232.864</ele>
        <time>2013-10-19T11:46:54Z</time>
      </trkpt>
      <trkpt lat="46.44301" lon="6.08608">
        <ele>1232.612</ele>
        <time>2013-10-19T11:46:56Z</time>
      </trkpt>
      <trkpt lat="46.44298" lon="6.08602">
        <ele>1232.166</ele>
        <time>2013-10-19T11:46:59Z</time>
      </trkpt>
      <trkpt lat="46.44295" lon="6.08585">
        <ele>1232.404</ele>
        <time>2013-10-19T11:47:11Z</time>
      </trkpt>
      <trkpt lat="46.44293" lon="6.08579">
        <ele>1231.958</ele>
        <time>2013-10-19T11:47:15Z</time>
      </trkpt>
      <trkpt lat="46.44293" lon="6.0857">
        <ele>1232.473</ele>
        <time>2013-10-19T11:47:20Z</time>
      </trkpt>
      <trkpt lat="46.44291" lon="6.08564">
        <ele>1235.634</ele>
        <time>2013-10-19T11:47:31Z</time>
      </trkpt>
      <trkpt lat="46.44291" lon="6.0856">
        <ele>1236.263</ele>
        <time>2013-10-19T11:47:44Z</time>
      </trkpt>
      <trkpt lat="46.44291" lon="6.08563">
        <ele>1234.974</ele>
        <time>2013-10-19T11:47:54Z</time>
      </trkpt>
    </trkseg>
  </trk>
</gpx>